This is the latest recevied weather packets stored in our database for station/object KF5WCW-1. If no packets are shown the sender has not sent any weather packets the latest 10 day(s).
| Time | Temp. | Humidity | Pressure | Rain* | Wind** | Luminosity | Snow |
|---|---|---|---|---|---|---|---|
| 1777940771 | 11.67° C | 48% | 0 hPa | 0 mm | - | - | - |
| 1777940471 | 11.67° C | 48% | 0 hPa | 0 mm | - | - | - |
| 1777940171 | 11.67° C | 49% | 0 hPa | 0 mm | - | - | - |
| 1777939871 | 11.67° C | 49% | 0 hPa | 0 mm | - | - | - |
| 1777939571 | 11.67° C | 50% | 0 hPa | 0 mm | - | - | - |
| 1777939271 | 11.67° C | 50% | 0 hPa | 0 mm | - | - | - |
| 1777938971 | 11.67° C | 52% | 0 hPa | 0 mm | - | - | - |
| 1777938671 | 11.67° C | 51% | 0 hPa | 0 mm | - | - | - |
| 1777938371 | 11.11° C | 51% | 0 hPa | 0 mm | - | - | - |
| 1777938071 | 11.11° C | 56% | 0 hPa | 0 mm | - | - | - |
| 1777937771 | 10.56° C | 61% | 0 hPa | 0 mm | - | - | - |
| 1777937471 | 10° C | 63% | 0 hPa | 0 mm | - | - | - |
| 1777937171 | 10° C | 67% | 0 hPa | 0 mm | - | - | - |
| 1777936871 | 9.44° C | 69% | 0 hPa | 0 mm | - | - | - |
| 1777936571 | 9.44° C | 69% | 0 hPa | 0 mm | - | - | - |
| 1777936271 | 9.44° C | 68% | 0 hPa | 0 mm | - | - | - |
| 1777935971 | 9.44° C | 69% | 0 hPa | 0 mm | - | - | - |
| 1777935671 | 10° C | 68% | 0 hPa | 0 mm | - | - | - |
| 1777935371 | 11.67° C | 52% | 0 hPa | 0 mm | - | - | - |
| 1777935071 | 12.22° C | 47% | 0 hPa | 0 mm | - | - | - |
| 1777934771 | 13.33° C | 45% | 0 hPa | 0 mm | - | - | - |
| 1777934471 | 13.33° C | 45% | 0 hPa | 0 mm | - | - | - |
| 1777934171 | 13.33° C | 48% | 0 hPa | 0 mm | - | - | - |
| 1777933871 | 13.33° C | 48% | 0 hPa | 0 mm | - | - | - |
| 1777933571 | 13.33° C | 48% | 0 hPa | 0 mm | - | - | - |
* Rain latest hour (hover to see other rain measurements)
** Current wind speed in m/s (hover to see current wind gust speed)